Time;durP1;ratioP1;P1;durP2;ratioP2;P2;SDS_P1;SDS_P2;PMS_P1;PMS_P2;Temp;Humidity;BMP_temperature;BMP_pressure;BME280_temperature;BME280_humidity;BME280_pressure;Samples;Min_cycle;Max_cycle;Signal;HPM_P1;HPM_P2
2022/08/29 00:02:18;;;;;;;5.53;2.35;;;;;;;16.07;100.00;102090.44;5273068;28;20025;-67
2022/08/29 00:04:50;;;;;;;6.80;2.72;;;;;;;16.01;100.00;102081.22;5270262;28;20031;-67
2022/08/29 00:07:21;;;;;;;8.13;3.08;;;;;;;16.02;100.00;102090.81;5256264;28;20061;-67
2022/08/29 00:09:52;;;;;;;5.47;3.20;;;;;;;15.99;100.00;102101.69;5274579;28;20028;-67
2022/08/29 00:12:24;;;;;;;4.82;2.75;;;;;;;16.00;100.00;102100.72;5273990;28;20020;-66
2022/08/29 00:14:55;;;;;;;7.78;3.53;;;;;;;16.02;100.00;102093.47;5273012;28;20020;-66
2022/08/29 00:17:26;;;;;;;13.95;4.10;;;;;;;15.96;100.00;102096.66;5274318;28;20055;-66
2022/08/29 00:19:58;;;;;;;8.13;3.90;;;;;;;15.93;100.00;102084.56;5269748;28;20020;-67
2022/08/29 00:22:29;;;;;;;6.68;4.10;;;;;;;15.77;100.00;102089.50;5272655;28;20024;-67
2022/08/29 00:25:03;;;;;;;7.35;3.78;;;;;;;15.72;100.00;102089.91;5273152;28;20494;-66
2022/08/29 00:27:35;;;;;;;7.13;3.92;;;;;;;15.82;100.00;102080.19;5274987;28;20020;-67
2022/08/29 00:30:08;;;;;;;5.75;3.47;;;;;;;15.80;100.00;102084.81;5272959;28;20067;-67
2022/08/29 00:32:39;;;;;;;6.97;3.97;;;;;;;15.72;100.00;102084.63;5272165;28;20039;-67
2022/08/29 00:35:14;;;;;;;7.35;3.95;;;;;;;15.79;100.00;102084.91;5269725;28;20040;-67
2022/08/29 00:37:46;;;;;;;7.43;4.30;;;;;;;15.62;100.00;102088.16;5272093;28;20028;-66
2022/08/29 00:40:21;;;;;;;6.43;4.05;;;;;;;15.65;100.00;102090.56;5271278;28;20048;-66
2022/08/29 00:42:53;;;;;;;8.63;4.82;;;;;;;15.50;100.00;102090.91;5273447;28;20111;-67
2022/08/29 00:45:24;;;;;;;8.52;4.15;;;;;;;15.47;100.00;102087.69;5273265;28;20040;-66
2022/08/29 00:47:59;;;;;;;10.73;4.47;;;;;;;15.43;100.00;102092.38;5272694;28;20082;-66
2022/08/29 00:50:35;;;;;;;12.88;4.63;;;;;;;15.36;100.00;102101.81;5274215;28;20383;-65
2022/08/29 00:53:12;;;;;;;6.85;4.57;;;;;;;15.30;100.00;102097.03;5269306;28;20040;-66
2022/08/29 00:55:46;;;;;;;9.15;4.20;;;;;;;15.27;100.00;102094.69;5271380;28;20023;-66
2022/08/29 00:58:25;;;;;;;7.88;4.15;;;;;;;15.31;100.00;102094.28;5273385;28;20040;-66
2022/08/29 01:00:57;;;;;;;9.38;4.30;;;;;;;15.19;100.00;102103.25;5268376;28;20098;-67
2022/08/29 01:03:32;;;;;;;8.02;4.97;;;;;;;15.22;100.00;102100.31;5268980;28;20016;-66
2022/08/29 01:06:05;;;;;;;9.68;4.63;;;;;;;15.10;100.00;102096.09;5271701;28;20066;-66
2022/08/29 01:08:36;;;;;;;7.38;4.63;;;;;;;15.14;100.00;102099.31;5266943;28;20024;-66
2022/08/29 01:14:01;;;;;;;7.22;4.20;;;;;;;14.95;100.00;102107.91;5272909;28;20028;-66
2022/08/29 01:16:32;;;;;;;8.80;4.57;;;;;;;14.96;100.00;102099.88;5251951;28;20467;-66
2022/08/29 01:19:28;;;;;;;7.22;4.93;;;;;;;15.06;100.00;102107.88;5273031;28;20059;-66
2022/08/29 01:22:29;;;;;;;7.78;4.55;;;;;;;15.06;100.00;102106.06;5272309;28;20025;-66
2022/08/29 01:25:04;;;;;;;7.60;4.30;;;;;;;14.91;100.00;102103.88;5271206;28;20451;-66
2022/08/29 01:27:39;;;;;;;7.50;4.40;;;;;;;14.84;100.00;102106.16;5271082;28;20024;-66
2022/08/29 01:30:11;;;;;;;7.40;4.38;;;;;;;14.76;100.00;102104.16;5253401;28;20457;-65
2022/08/29 01:32:42;;;;;;;7.97;4.25;;;;;;;14.73;100.00;102103.59;5268795;28;20032;-66
2022/08/29 01:35:14;;;;;;;8.13;5.07;;;;;;;14.64;100.00;102102.53;5269226;28;20108;-65
2022/08/29 01:37:45;;;;;;;8.27;5.00;;;;;;;14.56;100.00;102086.50;5270939;28;20024;-67
2022/08/29 01:40:17;;;;;;;8.90;5.40;;;;;;;14.57;100.00;102093.47;5272455;28;20032;-66
2022/08/29 01:42:48;;;;;;;8.93;4.80;;;;;;;14.56;100.00;102089.16;5271684;28;20016;-66
2022/08/29 01:45:19;;;;;;;9.93;5.43;;;;;;;14.45;100.00;102079.44;5271365;28;20108;-66
2022/08/29 01:47:51;;;;;;;9.90;5.35;;;;;;;14.50;100.00;102092.28;5269011;28;20470;-66
2022/08/29 01:50:22;;;;;;;10.38;5.72;;;;;;;14.43;100.00;102091.06;5276961;28;20086;-65
2022/08/29 01:52:53;;;;;;;10.35;6.00;;;;;;;14.48;100.00;102088.91;5276533;28;20020;-66
2022/08/29 01:55:24;;;;;;;9.73;6.15;;;;;;;14.47;100.00;102087.22;5275439;28;20025;-66
2022/08/29 01:57:56;;;;;;;11.98;6.40;;;;;;;14.40;100.00;102096.63;5277706;28;20392;-66
2022/08/29 02:00:28;;;;;;;12.20;6.85;;;;;;;14.40;100.00;102099.25;5273900;28;20395;-67
2022/08/29 02:03:00;;;;;;;11.23;6.20;;;;;;;14.39;100.00;102102.81;5276613;28;20020;-66
2022/08/29 02:05:31;;;;;;;14.13;6.38;;;;;;;14.31;100.00;102104.28;5279295;28;20290;-67
2022/08/29 02:08:02;;;;;;;8.65;5.82;;;;;;;14.23;100.00;102106.69;5278765;28;20024;-67
2022/08/29 02:10:34;;;;;;;10.60;6.35;;;;;;;14.30;100.00;102099.16;5279150;28;20024;-67
2022/08/29 02:13:05;;;;;;;10.55;6.43;;;;;;;14.27;100.00;102096.75;5277805;28;20375;-66
2022/08/29 02:15:36;;;;;;;11.23;5.65;;;;;;;14.26;100.00;102090.66;5278296;28;20437;-65
2022/08/29 02:18:07;;;;;;;9.48;5.93;;;;;;;14.15;100.00;102090.66;5275216;28;21044;-67
2022/08/29 02:20:39;;;;;;;10.32;5.93;;;;;;;14.21;100.00;102099.91;5278109;28;20021;-67
2022/08/29 02:23:10;;;;;;;10.05;6.13;;;;;;;14.18;100.00;102100.97;5279087;28;20024;-67
2022/08/29 02:25:42;;;;;;;12.98;6.30;;;;;;;14.20;100.00;102104.31;5278506;28;20107;-66
2022/08/29 02:28:17;;;;;;;12.70;6.80;;;;;;;14.22;100.00;102097.13;5278302;28;20716;-66
2022/08/29 02:30:51;;;;;;;9.98;6.43;;;;;;;14.11;100.00;102102.41;5276835;28;20775;-67
2022/08/29 02:33:24;;;;;;;9.43;6.47;;;;;;;14.06;100.00;102110.69;5276307;28;20330;-67
2022/08/29 02:35:56;;;;;;;9.93;6.10;;;;;;;14.07;100.00;102112.38;5279699;28;20017;-65
2022/08/29 02:38:28;;;;;;;11.48;5.40;;;;;;;14.04;100.00;102107.34;5277772;28;20024;-65
2022/08/29 02:41:00;;;;;;;12.27;6.22;;;;;;;13.91;100.00;102117.19;5277534;28;20081;-67
2022/08/29 02:43:32;;;;;;;10.73;6.10;;;;;;;14.02;100.00;102111.91;5279222;28;20016;-66
2022/08/29 02:46:04;;;;;;;9.05;5.40;;;;;;;13.95;100.00;102110.72;5276726;28;20544;-67
2022/08/29 02:48:35;;;;;;;11.73;6.07;;;;;;;14.02;100.00;102116.34;5276433;28;20091;-66
2022/08/29 02:51:06;;;;;;;8.23;5.90;;;;;;;14.01;100.00;102122.53;5277247;28;20445;-66
2022/08/29 02:53:38;;;;;;;10.88;5.60;;;;;;;14.01;100.00;102115.47;5277511;28;20028;-66
2022/08/29 02:56:09;;;;;;;10.40;6.28;;;;;;;13.88;100.00;102118.25;5277867;28;20066;-67
2022/08/29 02:58:41;;;;;;;11.73;6.35;;;;;;;13.95;100.00;102125.69;5275127;28;20075;-66
2022/08/29 03:01:13;;;;;;;8.43;6.03;;;;;;;13.93;100.00;102112.59;5270824;28;20086;-65
2022/08/29 03:03:44;;;;;;;10.13;6.18;;;;;;;13.90;100.00;102118.13;5265957;28;20482;-65
2022/08/29 03:06:17;;;;;;;9.70;5.63;;;;;;;13.84;100.00;102123.88;5275846;28;20028;-67
2022/08/29 03:08:49;;;;;;;14.35;6.75;;;;;;;13.86;100.00;102114.03;5270215;28;20029;-65
2022/08/29 03:11:20;;;;;;;8.23;5.78;;;;;;;13.83;100.00;102116.94;5269166;28;20029;-67
2022/08/29 03:13:51;;;;;;;11.63;5.25;;;;;;;13.83;100.00;102122.22;5267371;28;20020;-65
2022/08/29 03:16:23;;;;;;;11.13;4.75;;;;;;;13.77;100.00;102118.25;5273983;28;20025;-66
2022/08/29 03:18:55;;;;;;;9.15;4.90;;;;;;;13.66;100.00;102117.41;5270971;28;20020;-65
2022/08/29 03:21:27;;;;;;;8.45;4.93;;;;;;;13.68;100.00;102113.72;5265034;28;20247;-66
2022/08/29 03:23:58;;;;;;;8.30;4.82;;;;;;;13.66;100.00;102112.97;5268530;28;20039;-66
2022/08/29 03:26:29;;;;;;;9.75;4.60;;;;;;;13.66;100.00;102104.25;5266543;28;20123;-66
2022/08/29 03:29:00;;;;;;;8.50;5.38;;;;;;;13.63;100.00;102105.31;5265257;28;20526;-67
2022/08/29 03:31:32;;;;;;;8.45;4.65;;;;;;;13.61;100.00;102094.06;5266962;28;20040;-64
2022/08/29 03:34:03;;;;;;;9.20;5.63;;;;;;;13.55;100.00;102092.75;5276054;28;20042;-67
2022/08/29 03:36:35;;;;;;;9.57;5.20;;;;;;;13.48;100.00;102099.44;5264944;28;20484;-65
2022/08/29 03:39:06;;;;;;;9.30;4.78;;;;;;;13.49;100.00;102095.03;5262645;28;20107;-67
2022/08/29 03:41:37;;;;;;;5.97;4.20;;;;;;;13.51;100.00;102083.41;5267651;28;20387;-67
2022/08/29 03:44:09;;;;;;;5.93;4.10;;;;;;;13.48;100.00;102081.00;5271775;28;20028;-67
2022/08/29 03:46:40;;;;;;;8.88;4.68;;;;;;;13.49;100.00;102073.97;5266221;28;20016;-65
2022/08/29 03:49:11;;;;;;;8.77;5.07;;;;;;;13.55;100.00;102070.84;5265737;28;20480;-67
2022/08/29 03:51:43;;;;;;;11.85;5.30;;;;;;;13.55;100.00;102073.47;5267981;28;20036;-65
2022/08/29 03:54:14;;;;;;;7.47;4.85;;;;;;;13.57;100.00;102066.31;5259207;28;20059;-66
2022/08/29 03:56:46;;;;;;;8.93;5.03;;;;;;;13.52;100.00;102071.06;5265150;28;20499;-66
2022/08/29 03:59:18;;;;;;;11.73;5.38;;;;;;;13.45;100.00;102068.09;5265371;28;20032;-64
2022/08/29 04:01:49;;;;;;;11.80;6.10;;;;;;;13.43;100.00;102064.72;5262017;28;20082;-66
2022/08/29 04:07:13;;;;;;;9.55;6.28;;;;;;;13.46;100.00;102064.50;5270964;28;20032;-66
2022/08/29 04:09:45;;;;;;;8.98;5.38;;;;;;;13.49;100.00;102060.81;5263361;28;20024;-65
2022/08/29 04:12:16;;;;;;;13.18;6.07;;;;;;;13.54;100.00;102071.81;5266310;28;20385;-67
2022/08/29 04:14:47;;;;;;;11.45;5.53;;;;;;;13.54;100.00;102071.81;5264446;28;20095;-67
2022/08/29 04:17:18;;;;;;;10.65;5.40;;;;;;;13.55;100.00;102079.56;5262581;28;20025;-67
2022/08/29 04:19:50;;;;;;;11.20;5.85;;;;;;;13.44;100.00;102084.00;5270851;28;20024;-67
2022/08/29 04:22:21;;;;;;;9.80;5.55;;;;;;;13.47;100.00;102083.75;5271632;28;20021;-64
2022/08/29 04:24:52;;;;;;;13.10;5.43;;;;;;;13.39;100.00;102085.19;5245419;28;20029;-68
2022/08/29 04:27:23;;;;;;;10.52;5.75;;;;;;;13.42;100.00;102085.94;5263722;28;20016;-65
2022/08/29 04:29:55;;;;;;;10.57;4.90;;;;;;;13.34;100.00;102087.34;5263498;28;20059;-67
2022/08/29 04:32:26;;;;;;;14.43;5.68;;;;;;;13.27;100.00;102090.56;5265021;28;20054;-66
2022/08/29 04:34:57;;;;;;;13.00;5.35;;;;;;;13.32;100.00;102094.50;5268190;28;20023;-66
2022/08/29 04:37:29;;;;;;;10.20;5.45;;;;;;;13.29;100.00;102099.16;5267496;28;20032;-67
2022/08/29 04:40:01;;;;;;;9.50;4.95;;;;;;;13.26;100.00;102088.88;5262594;28;20131;-66
2022/08/29 04:42:35;;;;;;;8.63;5.53;;;;;;;13.30;100.00;102096.44;5266950;28;20025;-64
2022/08/29 04:45:13;;;;;;;10.40;5.65;;;;;;;13.25;100.00;102090.66;5270778;28;20058;-67
2022/08/29 04:47:44;;;;;;;8.23;5.35;;;;;;;13.27;100.00;102094.03;5264183;28;20025;-66
2022/08/29 04:50:19;;;;;;;11.00;6.03;;;;;;;13.33;100.00;102084.81;5266761;28;20032;-67
2022/08/29 04:52:51;;;;;;;11.40;5.90;;;;;;;13.30;100.00;102096.44;5265862;28;20511;-66
2022/08/29 04:55:23;;;;;;;8.82;5.80;;;;;;;13.28;100.00;102090.44;5252324;28;20127;-67
2022/08/29 04:57:57;;;;;;;8.80;6.50;;;;;;;13.34;100.00;102103.13;5262960;28;20048;-65
2022/08/29 05:00:29;;;;;;;10.75;5.32;;;;;;;13.31;100.00;102103.38;5268575;28;20274;-67
2022/08/29 05:03:00;;;;;;;11.15;5.63;;;;;;;13.32;100.00;102105.03;5260143;28;20239;-67
2022/08/29 05:05:31;;;;;;;9.63;5.35;;;;;;;13.30;100.00;102100.88;5269388;28;20020;-66
2022/08/29 05:08:03;;;;;;;8.00;5.50;;;;;;;13.32;100.00;102094.50;5266413;28;20035;-65
2022/08/29 05:10:34;;;;;;;9.98;6.20;;;;;;;13.29;100.00;102091.28;5267742;28;20673;-66
2022/08/29 05:13:05;;;;;;;9.98;5.15;;;;;;;13.34;100.00;102087.34;5264438;28;20029;-66
2022/08/29 05:15:37;;;;;;;7.90;4.95;;;;;;;13.36;100.00;102101.22;5265687;28;20040;-66
2022/08/29 05:18:08;;;;;;;8.13;5.30;;;;;;;13.38;100.00;102098.47;5267399;28;20025;-66
2022/08/29 05:20:41;;;;;;;8.75;4.68;;;;;;;13.33;100.00;102101.47;5266446;28;20020;-65
2022/08/29 05:23:14;;;;;;;6.72;4.57;;;;;;;13.43;100.00;102106.84;5269981;28;20078;-66
2022/08/29 05:25:54;;;;;;;10.10;5.15;;;;;;;13.60;100.00;102109.03;5261919;28;20028;-67
2022/08/29 05:28:27;;;;;;;15.63;5.82;;;;;;;13.52;100.00;102113.19;5260939;28;20499;-65
2022/08/29 05:30:59;;;;;;;8.43;4.45;;;;;;;13.54;100.00;102113.94;5258513;28;20545;-66
2022/08/29 05:33:30;;;;;;;7.32;4.40;;;;;;;13.62;100.00;102129.97;5260150;28;20028;-65
2022/08/29 05:36:02;;;;;;;9.32;4.97;;;;;;;13.66;100.00;102128.78;5258220;28;20035;-67
2022/08/29 05:38:33;;;;;;;9.45;5.53;;;;;;;13.74;100.00;102123.75;5255540;28;20091;-67
2022/08/29 05:41:06;;;;;;;11.63;5.60;;;;;;;13.79;100.00;102132.16;5254894;28;20024;-66
2022/08/29 05:43:37;;;;;;;8.43;4.43;;;;;;;13.83;100.00;102130.13;5260417;28;20507;-66
2022/08/29 05:46:10;;;;;;;7.85;4.63;;;;;;;13.84;100.00;102129.97;5268663;28;20117;-67
2022/08/29 05:48:41;;;;;;;7.70;4.35;;;;;;;13.91;100.00;102132.16;5266102;28;20142;-65
2022/08/29 05:51:17;;;;;;;7.80;4.20;;;;;;;14.01;100.00;102141.81;5263620;28;20123;-67
2022/08/29 05:53:49;;;;;;;7.95;4.43;;;;;;;13.96;100.00;102132.63;5262505;28;20028;-66
2022/08/29 05:56:22;;;;;;;8.85;4.72;;;;;;;14.06;100.00;102133.59;5262043;28;20480;-67
2022/08/29 05:58:54;;;;;;;11.73;4.70;;;;;;;14.18;100.00;102127.31;5268615;28;20060;-66
2022/08/29 06:01:29;;;;;;;8.55;4.53;;;;;;;14.28;100.00;102135.31;5249434;28;20036;-66
2022/08/29 06:04:00;;;;;;;9.82;4.45;;;;;;;14.29;100.00;102139.66;5266030;28;20465;-66
2022/08/29 06:06:32;;;;;;;9.13;4.40;;;;;;;14.32;100.00;102137.63;5265328;28;20063;-66
2022/08/29 06:09:03;;;;;;;6.78;4.22;;;;;;;14.36;100.00;102144.31;5265658;28;20029;-66
2022/08/29 06:11:34;;;;;;;9.95;5.07;;;;;;;14.39;100.00;102139.75;5261903;28;20048;-66
2022/08/29 06:14:06;;;;;;;9.32;4.35;;;;;;;14.44;100.00;102140.22;5249841;28;20095;-65
2022/08/29 06:16:38;;;;;;;8.43;4.35;;;;;;;14.55;100.00;102142.88;5256941;28;20039;-67
2022/08/29 06:19:10;;;;;;;6.22;4.18;;;;;;;14.54;100.00;102149.91;5266342;28;20103;-68
2022/08/29 06:21:42;;;;;;;10.37;4.60;;;;;;;14.62;100.00;102154.56;5268016;28;20024;-67
2022/08/29 06:24:14;;;;;;;7.50;4.45;;;;;;;14.60;100.00;102149.44;5262586;28;20683;-64
2022/08/29 06:26:45;;;;;;;8.27;4.60;;;;;;;14.68;100.00;102151.44;5265166;28;20037;-67
2022/08/29 06:29:17;;;;;;;9.57;4.90;;;;;;;14.73;100.00;102153.69;5258651;28;20033;-66
2022/08/29 06:31:48;;;;;;;9.85;5.13;;;;;;;14.83;100.00;102157.28;5260808;28;20422;-66
2022/08/29 06:34:20;;;;;;;8.15;4.70;;;;;;;14.91;100.00;102156.63;5263577;28;20360;-67
2022/08/29 06:36:51;;;;;;;8.80;4.38;;;;;;;15.00;100.00;102153.22;5272387;28;20418;-66
2022/08/29 06:39:22;;;;;;;7.35;4.90;;;;;;;15.07;100.00;102157.88;5265936;28;20043;-65
2022/08/29 06:41:53;;;;;;;8.00;5.35;;;;;;;15.14;100.00;102147.66;5268126;28;20054;-67
2022/08/29 06:44:25;;;;;;;10.35;5.00;;;;;;;15.22;100.00;102157.56;5267386;28;20021;-67
2022/08/29 06:46:57;;;;;;;9.68;4.70;;;;;;;15.30;100.00;102165.69;5266777;28;20032;-67
2022/08/29 06:49:30;;;;;;;7.60;4.63;;;;;;;15.42;100.00;102169.94;5272497;28;20479;-67
2022/08/29 06:52:02;;;;;;;;;;;;;;;16.07;100.00;102173.22;5269065;28;20431;-67
2022/08/29 06:54:33;;;;;;;8.63;4.90;;;;;;;15.74;100.00;102169.88;5271741;28;19992;-65
2022/08/29 06:57:05;;;;;;;10.15;5.50;;;;;;;15.87;100.00;102171.47;5271545;28;20182;-67
2022/08/29 06:59:36;;;;;;;8.27;5.60;;;;;;;16.01;100.00;102165.81;5273169;28;20480;-67
2022/08/29 07:02:08;;;;;;;8.35;5.18;;;;;;;16.04;100.00;102161.09;5271547;28;20028;-66
2022/08/29 07:04:39;;;;;;;10.02;5.38;;;;;;;16.27;100.00;102164.38;5275322;28;20419;-65
2022/08/29 07:07:10;;;;;;;8.18;5.20;;;;;;;16.38;100.00;102167.88;5276098;28;20463;-66
2022/08/29 07:09:43;;;;;;;11.73;5.18;;;;;;;16.52;100.00;102165.69;5274843;28;20027;-67
2022/08/29 07:12:14;;;;;;;8.95;5.75;;;;;;;16.80;100.00;102163.25;5273229;28;20033;-67
2022/08/29 07:14:45;;;;;;;7.60;4.82;;;;;;;17.00;100.00;102156.97;5273226;28;20043;-67
2022/08/29 07:17:16;;;;;;;7.07;4.93;;;;;;;17.40;100.00;102152.47;5272457;28;20028;-64
2022/08/29 07:19:48;;;;;;;8.63;5.05;;;;;;;17.51;100.00;102157.59;5272516;28;20387;-67
2022/08/29 07:22:20;;;;;;;18.77;6.65;;;;;;;17.77;100.00;102157.84;5271973;28;20029;-67
2022/08/29 07:24:52;;;;;;;12.77;5.20;;;;;;;17.94;100.00;102156.22;5273172;28;20022;-66
2022/08/29 07:27:23;;;;;;;10.15;5.28;;;;;;;18.26;95.29;102155.78;5273349;28;20028;-65
2022/08/29 07:29:55;;;;;;;7.05;4.50;;;;;;;18.38;90.92;102153.75;5273643;28;20510;-66
2022/08/29 07:32:26;;;;;;;10.80;4.13;;;;;;;18.56;82.53;102164.38;5272055;28;20399;-66
2022/08/29 07:34:57;;;;;;;6.75;4.05;;;;;;;18.73;85.38;102152.16;5272793;28;20111;-66
2022/08/29 07:37:29;;;;;;;6.90;4.13;;;;;;;18.72;78.94;102148.66;5254149;28;20124;-67
2022/08/29 07:40:00;;;;;;;7.43;4.70;;;;;;;18.87;81.70;102152.47;5270368;28;20025;-67
2022/08/29 07:42:33;;;;;;;11.65;4.80;;;;;;;18.90;79.85;102130.06;5271388;28;20020;-66
2022/08/29 07:45:07;;;;;;;8.43;4.00;;;;;;;18.86;78.47;102144.63;5273145;28;20025;-67
2022/08/29 07:47:38;;;;;;;6.35;3.80;;;;;;;18.88;76.48;102145.31;5270092;28;20033;-66
2022/08/29 07:50:13;;;;;;;8.13;3.97;;;;;;;18.96;75.06;102142.72;5271368;28;20028;-66
2022/08/29 07:52:46;;;;;;;9.43;3.88;;;;;;;18.95;74.61;102160.50;5271893;28;20021;-66
2022/08/29 07:55:20;;;;;;;9.20;4.32;;;;;;;19.09;77.46;102161.78;5269413;28;20379;-67
2022/08/29 08:00:25;;;;;;;6.32;3.55;;;;;;;19.22;72.16;102152.56;5269598;28;20121;-69
2022/08/29 08:02:56;;;;;;;6.68;3.10;;;;;;;19.30;70.48;102155.28;5274018;28;20021;-69
2022/08/29 08:05:28;;;;;;;8.43;3.13;;;;;;;19.42;69.15;102154.84;5275427;28;20081;-68
2022/08/29 08:07:59;;;;;;;7.35;3.10;;;;;;;19.41;66.04;102153.19;5272930;28;20028;-68
2022/08/29 08:10:30;;;;;;;6.45;2.97;;;;;;;19.43;64.31;102150.38;5273981;28;20056;-69
2022/08/29 08:13:02;;;;;;;4.43;2.63;;;;;;;19.49;64.42;102156.91;5269844;28;20182;-69
2022/08/29 08:15:33;;;;;;;11.00;3.20;;;;;;;19.57;65.73;102149.78;5269803;28;20047;-69
2022/08/29 08:18:05;;;;;;;6.90;3.28;;;;;;;19.67;65.05;102150.56;5273292;28;20056;-69
2022/08/29 08:20:36;;;;;;;9.02;3.78;;;;;;;19.73;66.16;102148.25;5251103;28;20048;-69
2022/08/29 08:23:07;;;;;;;6.57;3.65;;;;;;;19.73;66.82;102148.25;5271487;28;20032;-69
2022/08/29 08:25:39;;;;;;;7.18;3.35;;;;;;;19.86;66.32;102154.81;5273303;28;20020;-69
2022/08/29 08:28:14;;;;;;;8.20;3.40;;;;;;;19.93;66.83;102147.03;5267666;28;20036;-69
2022/08/29 08:30:45;;;;;;;6.38;3.67;;;;;;;19.98;68.72;102150.03;5267173;28;20496;-69
2022/08/29 08:33:16;;;;;;;7.10;3.80;;;;;;;20.12;63.30;102153.91;5266248;28;20021;-69
2022/08/29 08:35:48;;;;;;;7.33;3.40;;;;;;;20.18;64.25;102159.41;5269386;28;20020;-69
2022/08/29 08:38:20;;;;;;;8.70;3.20;;;;;;;20.22;63.79;102157.25;5269238;28;20036;-68
2022/08/29 08:41:03;;;;;;;6.35;3.33;;;;;;;20.27;66.37;102146.16;5271577;28;20024;-68
2022/08/29 08:43:54;;;;;;;5.85;3.15;;;;;;;20.36;65.02;102151.31;5271952;28;20503;-69
2022/08/29 08:46:37;;;;;;;6.65;3.08;;;;;;;20.31;62.53;102148.31;5268721;28;20441;-69
2022/08/29 08:49:23;;;;;;;6.82;3.42;;;;;;;20.33;66.28;102140.16;5270120;28;20032;-69
2022/08/29 08:52:00;;;;;;;15.50;3.72;;;;;;;20.44;67.68;102141.69;5270578;28;20036;-70
2022/08/29 08:54:40;;;;;;;8.95;3.28;;;;;;;20.43;61.90;102148.84;5268896;28;20027;-69
2022/08/29 08:57:12;;;;;;;8.18;3.60;;;;;;;20.38;58.71;102151.16;5269871;28;20032;-70
2022/08/29 08:59:55;;;;;;;10.00;3.05;;;;;;;20.38;58.63;102148.47;5273038;28;20668;-69
2022/08/29 09:02:56;;;;;;;6.60;3.33;;;;;;;20.54;59.44;102151.22;5268594;28;20241;-69
2022/08/29 09:05:36;;;;;;;7.15;3.47;;;;;;;20.38;58.35;102156.47;5273228;28;20478;-69
2022/08/29 09:08:40;;;;;;;6.25;3.40;;;;;;;20.50;57.76;102152.56;5272099;28;20029;-69
2022/08/29 09:11:28;;;;;;;7.15;3.40;;;;;;;20.66;58.54;102151.75;5266136;28;20120;-69
2022/08/29 09:14:11;;;;;;;8.18;3.58;;;;;;;20.62;57.86;102151.25;5267150;28;20558;-69
2022/08/29 09:16:48;;;;;;;7.60;3.65;;;;;;;20.69;56.72;102161.25;5272002;28;20028;-69
2022/08/29 09:19:19;;;;;;;10.00;3.92;;;;;;;20.63;57.19;102160.88;5270076;28;20030;-68
2022/08/29 09:22:05;;;;;;;9.77;3.17;;;;;;;20.69;56.18;102155.91;5271873;28;20406;-69
2022/08/29 09:25:01;;;;;;;7.75;3.63;;;;;;;20.89;57.82;102162.59;5271769;28;20067;-68
2022/08/29 09:27:34;;;;;;;9.25;3.85;;;;;;;20.59;57.10;102148.91;5249191;28;20090;-69
2022/08/29 09:30:23;;;;;;;7.93;3.80;;;;;;;20.86;59.47;102162.91;5270497;28;20020;-69
2022/08/29 09:32:57;;;;;;;7.80;3.85;;;;;;;20.84;62.21;102170.25;5269805;28;20140;-69
2022/08/29 09:35:36;;;;;;;8.32;3.75;;;;;;;20.88;60.61;102175.06;5269364;28;20024;-68
2022/08/29 09:38:17;;;;;;;7.20;3.47;;;;;;;20.85;58.50;102171.91;5271488;28;20028;-69
2022/08/29 09:41:02;;;;;;;6.05;3.33;;;;;;;20.95;56.86;102172.59;5272579;28;20032;-69
2022/08/29 09:43:42;;;;;;;7.05;3.20;;;;;;;21.00;58.71;102164.09;5267493;28;20098;-68
2022/08/29 09:46:19;;;;;;;5.97;3.70;;;;;;;20.73;60.51;102151.94;5268656;28;20059;-69
2022/08/29 09:48:56;;;;;;;5.65;3.30;;;;;;;20.90;58.83;102164.25;5271687;28;20387;-69
2022/08/29 09:51:34;;;;;;;5.43;3.55;;;;;;;20.83;58.42;102169.38;5267678;28;20051;-69
2022/08/29 09:54:27;;;;;;;6.18;3.20;;;;;;;20.76;57.33;102160.41;5264744;28;20090;-69
2022/08/29 09:57:20;;;;;;;6.18;3.25;;;;;;;21.18;55.21;102155.94;5268257;28;20063;-69
2022/08/29 10:00:12;;;;;;;6.70;2.90;;;;;;;21.38;55.55;102162.59;5260120;28;20067;-70
2022/08/29 10:02:50;;;;;;;6.78;3.67;;;;;;;21.18;55.23;102150.59;5257166;28;20120;-70
2022/08/29 10:05:34;;;;;;;6.18;3.42;;;;;;;21.01;55.86;102149.75;5264687;28;20055;-69
2022/08/29 10:08:24;;;;;;;6.53;3.30;;;;;;;20.91;54.05;102152.59;5265688;28;20103;-69
2022/08/29 10:11:14;;;;;;;5.90;3.45;;;;;;;20.98;56.10;102166.06;5264471;28;20055;-69
2022/08/29 10:13:52;;;;;;;6.30;3.60;;;;;;;21.04;57.69;102170.75;5262006;28;20407;-69
2022/08/29 10:16:26;;;;;;;9.32;3.80;;;;;;;21.13;56.39;102159.06;5264564;28;20052;-69
2022/08/29 10:19:10;;;;;;;5.40;3.70;;;;;;;21.33;56.45;102147.09;5259621;28;20029;-69
2022/08/29 10:21:56;;;;;;;6.43;3.70;;;;;;;21.37;55.46;102164.44;5269045;28;20020;-69
2022/08/29 10:24:51;;;;;;;8.10;3.50;;;;;;;21.17;55.18;102164.91;5272465;28;20035;-69
2022/08/29 10:27:36;;;;;;;8.15;3.65;;;;;;;21.36;55.72;102162.75;5266965;28;20021;-69
2022/08/29 10:30:15;;;;;;;6.45;3.33;;;;;;;21.58;55.10;102155.88;5265236;28;20516;-69
2022/08/29 10:32:53;;;;;;;8.95;4.03;;;;;;;21.88;55.54;102147.28;5268366;28;20059;-69
2022/08/29 10:36:00;;;;;;;6.32;3.28;;;;;;;22.31;54.36;102138.75;5262062;28;20032;-68
2022/08/29 10:38:43;;;;;;;6.85;3.92;;;;;;;22.30;51.74;102139.75;5263796;28;20032;-69
2022/08/29 10:41:31;;;;;;;6.78;3.47;;;;;;;22.32;50.74;102143.09;5265348;28;20078;-69
2022/08/29 10:44:11;;;;;;;8.35;4.20;;;;;;;22.35;50.49;102147.25;5265763;28;20036;-70
2022/08/29 10:47:11;;;;;;;9.15;4.50;;;;;;;22.76;50.31;102136.25;5259670;28;20029;-69
2022/08/29 10:50:03;;;;;;;8.32;3.70;;;;;;;22.90;50.24;102140.84;5267630;28;20471;-69
2022/08/29 10:52:51;;;;;;;6.28;3.97;;;;;;;22.69;50.01;102132.66;5265131;28;20032;-69
2022/08/29 10:56:21;;;;;;;7.55;3.65;;;;;;;23.11;50.06;102134.84;5267273;28;20090;-69
2022/08/29 10:59:02;;;;;;;9.52;4.10;;;;;;;23.00;49.23;102133.44;5225231;28;20052;-70
2022/08/29 11:01:56;;;;;;;6.50;3.97;;;;;;;23.16;49.64;102120.94;5269734;28;20047;-69
2022/08/29 11:04:37;;;;;;;5.30;3.60;;;;;;;23.14;49.70;102117.59;5265839;28;20123;-69
2022/08/29 11:07:33;;;;;;;8.55;3.70;;;;;;;23.12;48.62;102124.97;5265586;28;20035;-68
2022/08/29 11:10:12;;;;;;;7.30;3.92;;;;;;;22.84;49.63;102114.81;5262643;28;20082;-69
2022/08/29 11:12:58;;;;;;;7.15;3.55;;;;;;;23.08;48.31;102113.81;5267939;28;20268;-69
2022/08/29 11:15:58;;;;;;;8.05;3.83;;;;;;;23.38;49.32;102114.69;5260240;28;20025;-69
2022/08/29 11:18:48;;;;;;;6.97;3.95;;;;;;;23.28;47.63;102114.94;5260560;28;20044;-69
2022/08/29 11:21:30;;;;;;;7.00;3.42;;;;;;;23.39;48.56;102110.97;5263303;28;20028;-70
2022/08/29 11:24:02;;;;;;;7.05;4.07;;;;;;;23.01;46.82;102111.03;5264069;28;20031;-69
2022/08/29 11:26:57;;;;;;;6.93;3.28;;;;;;;23.45;48.10;102098.69;5269971;28;20024;-69
2022/08/29 11:29:59;;;;;;;7.68;3.72;;;;;;;23.59;46.86;102099.72;5261338;28;20017;-70
2022/08/29 11:33:03;;;;;;;6.80;3.33;;;;;;;23.63;46.52;102085.78;5266069;28;20606;-70
2022/08/29 11:35:56;;;;;;;6.78;3.63;;;;;;;23.75;46.42;102094.19;5259096;28;20107;-69
2022/08/29 11:38:52;;;;;;;7.47;3.33;;;;;;;23.55;45.80;102086.72;5265671;28;20391;-70
2022/08/29 11:41:37;;;;;;;5.53;2.97;;;;;;;23.75;45.87;102094.19;5265533;28;20454;-69
2022/08/29 11:44:32;;;;;;;4.80;3.13;;;;;;;23.81;44.60;102093.47;5265397;28;20035;-69
2022/08/29 11:47:25;;;;;;;6.78;3.63;;;;;;;23.82;45.23;102079.06;5263807;28;20024;-70
2022/08/29 11:50:02;;;;;;;;;;;;;;;24.39;44.21;102078.25;5260076;28;20084;-70
2022/08/29 11:52:34;;;;;;;6.00;2.83;;;;;;;23.88;44.31;102080.16;5262185;28;19920;-70
2022/08/29 11:55:29;;;;;;;8.77;3.57;;;;;;;24.21;45.06;102075.19;5264352;28;20032;-70
2022/08/29 11:58:26;;;;;;;9.52;3.58;;;;;;;24.02;43.24;102077.44;5244090;28;20033;-70
2022/08/29 12:00:58;;;;;;;5.22;3.00;;;;;;;24.08;43.10;102083.06;5240500;28;20052;-70
2022/08/29 12:03:32;;;;;;;5.85;3.25;;;;;;;24.06;42.46;102077.06;5244148;28;20028;-70
2022/08/29 12:06:16;;;;;;;8.43;3.15;;;;;;;24.22;42.13;102076.84;5243482;28;20029;-70
2022/08/29 12:09:00;;;;;;;7.28;3.20;;;;;;;24.23;44.20;102084.66;5241804;28;20144;-70